Saint Marys, Illinois
Current Conditions -  °F | °C
As of 2:15 AM on Saturday 25 Oct 2014 (Local Time) from K1H2 Reporting Station
Overcast Overcast  
Wind Chill: 59°   Ceiling: 4200
Heat Index: 59°   Visibility: 10mi
Dew Point: 50°   Wind: 5mph
Humidity: 72%   Direction: 190°S
Pressure: 29.98"   Gusts: NA
Location:  39.1183°N, 88.6059°W
Report Text: K1H2 250715Z AUTO 19004KT 10SM OVC042 15/10 A2998 RMK AO2 T01520101
Loading
Personal Weather Stations






























Interactive Weather Map
Tropical Storm Tracking
New forecast layout! Learn more

10-Day Weather Forecast

Advertisements
Track Severe Weather on mobile